Time;durP1;ratioP1;P1;durP2;ratioP2;P2;SDS_P1;SDS_P2;PMS_P1;PMS_P2;Temp;Humidity;BMP_temperature;BMP_pressure;BME280_temperature;BME280_humidity;BME280_pressure;Samples;Min_cycle;Max_cycle;Signal;HPM_P1;HPM_P2
2021/08/31 00:00:56;;;;;;;;;;;;;;;-142.75;97.21;77590.09;5077117;28;19966;-79
2021/08/31 00:03:21;;;;;;;;;;;;;;;-142.75;97.25;77599.94;5076805;28;19982;-79
2021/08/31 00:05:46;;;;;;;;;;;;;;;-142.75;97.32;77597.97;5059161;28;19913;-80
2021/08/31 00:08:11;;;;;;;;;;;;;;;-142.75;97.27;77607.81;5029088;28;20519;-79
2021/08/31 00:10:37;;;;;;;;;;;;;;;-142.75;97.45;77603.88;5009425;28;19921;-79
2021/08/31 00:13:02;;;;;;;;;;;;;;;-142.75;97.25;77617.66;5076834;28;19928;-79
2021/08/31 00:15:27;;;;;;;;;;;;;;;-142.75;97.42;77623.56;5009626;28;20381;-79
2021/08/31 00:17:53;;;;;;;;;;;;;;;-142.75;97.40;77625.53;5009148;28;20008;-79
2021/08/31 00:20:18;;;;;;;;;;;;;;;-142.75;97.54;77627.50;5009056;28;20004;-79
2021/08/31 00:22:43;;;;;;;;;;;;;;;-142.75;97.63;77623.56;5009206;28;19920;-79
2021/08/31 00:25:08;;;;;;;;;;;;;;;-142.75;97.67;77625.53;5077019;28;19913;-80
2021/08/31 00:27:34;;;;;;;;;;;;;;;-142.75;97.69;77617.66;5076809;28;19921;-79
2021/08/31 00:29:59;;;;;;;;;;;;;;;-142.75;97.71;77623.56;5016180;28;20305;-78
2021/08/31 00:32:24;;;;;;;;;;;;;;;-142.75;97.95;77631.44;5028607;28;19920;-79
2021/08/31 00:34:50;;;;;;;;;;;;;;;-142.75;97.91;77627.50;5029533;28;19928;-79
2021/08/31 00:37:15;;;;;;;;;;;;;;;-142.75;97.87;77633.41;5007822;28;19913;-79
2021/08/31 00:39:40;;;;;;;;;;;;;;;-142.75;97.93;77637.34;5075909;28;19918;-79
2021/08/31 00:42:05;;;;;;;;;;;;;;;-142.75;97.85;77641.28;5009403;28;19998;-79
2021/08/31 00:44:31;;;;;;;;;;;;;;;-142.75;97.87;77637.34;5007883;28;19943;-79
2021/08/31 00:46:57;;;;;;;;;;;;;;;-142.75;98.11;77639.31;5019434;28;19913;-79
2021/08/31 00:49:23;;;;;;;;;;;;;;;-142.75;98.25;77653.09;5021893;28;20412;-79
2021/08/31 00:51:48;;;;;;;;;;;;;;;-142.75;98.47;77643.25;5049281;28;19992;-79
2021/08/31 00:54:17;;;;;;;;;;;;;;;-142.75;98.54;77645.22;5078533;28;19917;-79
2021/08/31 00:56:46;;;;;;;;;;;;;;;-142.75;98.61;77649.16;5079889;28;19963;-79
2021/08/31 00:59:11;;;;;;;;;;;;;;;-142.75;98.72;77651.13;5011362;28;19921;-79
2021/08/31 01:01:36;;;;;;;;;;;;;;;-142.75;98.95;77660.97;5080836;28;19962;-79
2021/08/31 01:04:01;;;;;;;;;;;;;;;-142.75;99.08;77666.88;5013316;28;19948;-79
2021/08/31 01:06:27;;;;;;;;;;;;;;;-142.75;99.30;77670.81;5031567;28;20006;-79
2021/08/31 01:08:52;;;;;;;;;;;;;;;-142.75;99.61;77670.81;5079646;28;19920;-80
2021/08/31 01:11:17;;;;;;;;;;;;;;;-142.75;99.77;77676.72;5033683;28;19913;-80
2021/08/31 01:13:43;;;;;;;;;;;;;;;-142.75;99.75;77676.72;5030773;28;19913;-79
2021/08/31 01:16:08;;;;;;;;;;;;;;;-142.75;100.00;77686.56;5045313;28;19913;-78
2021/08/31 01:18:34;;;;;;;;;;;;;;;-142.75;100.00;77688.53;5027544;28;20004;-79
2021/08/31 01:20:59;;;;;;;;;;;;;;;-142.75;100.00;77690.50;5023886;28;19986;-78
2021/08/31 01:23:25;;;;;;;;;;;;;;;-142.75;100.00;77688.53;5026978;28;19917;-79
2021/08/31 01:25:51;;;;;;;;;;;;;;;-142.75;100.00;77694.44;5014301;28;20306;-79
2021/08/31 01:28:18;;;;;;;;;;;;;;;-142.75;100.00;77696.41;5079751;28;20287;-78
2021/08/31 01:30:44;;;;;;;;;;;;;;;-142.75;100.00;77700.34;5112251;27;19913;-78
2021/08/31 01:33:10;;;;;;;;;;;;;;;-142.75;100.00;77692.47;5014332;28;19917;-78
2021/08/31 01:35:35;;;;;;;;;;;;;;;-142.75;100.00;77698.38;5032078;28;19913;-79
2021/08/31 01:38:00;;;;;;;;;;;;;;;-142.75;100.00;77704.28;5031601;28;20378;-79
2021/08/31 01:40:25;;;;;;;;;;;;;;;-142.75;100.00;77700.34;5030610;28;19913;-79
2021/08/31 01:42:50;;;;;;;;;;;;;;;-142.75;100.00;77704.28;5016146;28;19976;-78
2021/08/31 01:45:16;;;;;;;;;;;;;;;-142.75;100.00;77704.28;5017814;28;19913;-79
2021/08/31 01:47:41;;;;;;;;;;;;;;;-142.75;100.00;77704.28;5026530;28;19920;-78
2021/08/31 01:50:07;;;;;;;;;;;;;;;-142.75;100.00;77698.38;5039041;28;19920;-79
2021/08/31 01:52:32;;;;;;;;;;;;;;;-142.75;100.00;77706.25;5039398;28;20420;-78
2021/08/31 01:54:57;;;;;;;;;;;;;;;-142.75;100.00;77708.22;5016055;28;20553;-78
2021/08/31 01:57:22;;;;;;;;;;;;;;;-142.75;100.00;77712.16;5046026;28;19917;-79
2021/08/31 01:59:47;;;;;;;;;;;;;;;-142.75;100.00;77720.03;5027031;28;19996;-78
2021/08/31 02:02:12;;;;;;;;;;;;;;;-142.75;100.00;77718.06;5013533;28;20011;-78
2021/08/31 02:04:38;;;;;;;;;;;;;;;-142.75;100.00;77725.97;5013729;28;19984;-78
2021/08/31 02:07:03;;;;;;;;;;;;;;;-142.75;100.00;77735.81;5041794;28;19956;-79
2021/08/31 02:09:28;;;;;;;;;;;;;;;-142.75;100.00;77729.88;5027181;28;19913;-79
2021/08/31 02:11:53;;;;;;;;;;;;;;;-142.75;100.00;77739.75;5032375;28;19941;-79
2021/08/31 02:14:18;;;;;;;;;;;;;;;-142.75;100.00;77735.81;5032822;28;20386;-78
2021/08/31 02:16:43;;;;;;;;;;;;;;;-142.75;100.00;77739.75;5014055;28;19913;-80
2021/08/31 02:19:09;;;;;;;;;;;;;;;-142.75;100.00;77731.88;5031647;28;19917;-78
2021/08/31 02:21:34;;;;;;;;;;;;;;;-142.75;100.00;77739.75;5013385;28;20366;-78
2021/08/31 02:23:59;;;;;;;;;;;;;;;-142.75;100.00;77731.88;5013415;28;19925;-78
2021/08/31 02:26:28;;;;;;;;;;;;;;;-142.75;100.00;77737.78;5031809;28;19917;-79
2021/08/31 02:28:54;;;;;;;;;;;;;;;-142.75;100.00;77733.84;5013697;28;19981;-77
2021/08/31 02:31:19;;;;;;;;;;;;;;;-142.75;100.00;77739.75;5031126;28;20374;-78
2021/08/31 02:33:44;;;;;;;;;;;;;;;-142.75;100.00;77745.66;5031350;28;19913;-78
2021/08/31 02:36:09;;;;;;;;;;;;;;;-142.75;100.00;77747.63;5013910;28;20297;-78
2021/08/31 02:38:34;;;;;;;;;;;;;;;-142.75;100.00;77743.69;5012762;28;19923;-78
2021/08/31 02:41:00;;;;;;;;;;;;;;;-142.75;100.00;77739.75;5012649;28;19913;-78
2021/08/31 02:43:25;;;;;;;;;;;;;;;-142.75;100.00;77737.78;5031676;28;19931;-78
2021/08/31 02:45:50;;;;;;;;;;;;;;;-142.75;100.00;77737.78;5012632;28;19917;-78
2021/08/31 02:48:15;;;;;;;;;;;;;;;-142.75;100.00;77735.81;5078085;28;19987;-77
2021/08/31 02:50:40;;;;;;;;;;;;;;;-142.75;100.00;77731.88;5010030;28;19974;-78
2021/08/31 02:53:05;;;;;;;;;;;;;;;-142.75;100.00;77735.81;5010355;28;19995;-77
2021/08/31 02:55:31;;;;;;;;;;;;;;;-142.75;100.00;77737.78;5011126;28;19921;-77
2021/08/31 02:57:56;;;;;;;;;;;;;;;-142.75;100.00;77743.69;5078819;28;19947;-77
2021/08/31 03:00:28;;;;;;;;;;;;;;;-142.75;100.00;77743.69;5013162;28;19944;-78
2021/08/31 03:02:53;;;;;;;;;;;;;;;-142.75;100.00;77743.69;5010962;28;19914;-78
2021/08/31 03:05:18;;;;;;;;;;;;;;;-142.75;100.00;77743.69;5014506;28;19920;-77
2021/08/31 03:07:44;;;;;;;;;;;;;;;-142.75;100.00;77747.63;5012765;28;21358;-78
2021/08/31 03:10:09;;;;;;;;;;;;;;;-142.75;100.00;77743.69;5011914;28;19959;-78
2021/08/31 03:12:34;;;;;;;;;;;;;;;-142.75;100.00;77749.59;5029368;28;20390;-79
2021/08/31 03:14:59;;;;;;;;;;;;;;;-142.75;100.00;77761.41;5013658;28;19913;-77
2021/08/31 03:17:24;;;;;;;;;;;;;;;-142.75;100.00;77755.50;5029790;28;20378;-77
2021/08/31 03:19:50;;;;;;;;;;;;;;;-142.75;100.00;77755.50;5021672;28;19917;-80
2021/08/31 03:22:15;;;;;;;;;;;;;;;-142.75;100.00;77761.41;5078143;28;19918;-78
2021/08/31 03:24:40;;;;;;;;;;;;;;;-142.75;100.00;77763.38;5079060;28;19917;-77
2021/08/31 03:27:06;;;;;;;;;;;;;;;-142.75;100.00;77759.44;5079507;28;19913;-78
2021/08/31 03:29:31;;;;;;;;;;;;;;;-142.75;100.00;77767.31;5010899;28;19939;-78
2021/08/31 03:31:56;;;;;;;;;;;;;;;-142.75;100.00;77759.44;5025925;28;19920;-78
2021/08/31 03:34:21;;;;;;;;;;;;;;;-142.75;100.00;77759.44;5050188;28;19913;-77
2021/08/31 03:36:47;;;;;;;;;;;;;;;-142.75;100.00;77755.50;5015610;28;19913;-77
2021/08/31 03:39:12;;;;;;;;;;;;;;;-142.75;100.00;77755.50;5077478;28;19913;-79
2021/08/31 03:41:37;;;;;;;;;;;;;;;-142.75;100.00;77755.50;5080629;28;19913;-77
2021/08/31 03:44:04;;;;;;;;;;;;;;;-142.75;100.00;77767.31;5013724;28;19962;-77
2021/08/31 03:46:30;;;;;;;;;;;;;;;-142.75;100.00;77765.34;5077293;28;19928;-77
2021/08/31 03:48:55;;;;;;;;;;;;;;;-142.75;100.00;77763.38;5017238;28;20007;-79
2021/08/31 03:51:20;;;;;;;;;;;;;;;-142.75;100.00;77761.41;5030128;28;20008;-78
2021/08/31 03:53:45;;;;;;;;;;;;;;;-142.75;100.00;77771.25;5013536;28;19917;-78
2021/08/31 03:56:10;;;;;;;;;;;;;;;-142.75;100.00;77771.25;5077331;28;19917;-78
2021/08/31 03:58:36;;;;;;;;;;;;;;;-142.75;100.00;77781.09;5016162;28;20613;-78
2021/08/31 04:01:01;;;;;;;;;;;;;;;-142.75;100.00;77779.13;5024204;28;20000;-80
2021/08/31 04:03:26;;;;;;;;;;;;;;;-142.75;100.00;77783.06;5032011;28;20011;-79
2021/08/31 04:05:51;;;;;;;;;;;;;;;-142.75;100.00;77785.03;5026419;28;19935;-79
2021/08/31 04:08:16;;;;;;;;;;;;;;;-142.75;100.00;77783.06;5013680;28;19996;-78
2021/08/31 04:10:42;;;;;;;;;;;;;;;-142.75;100.00;77788.97;5009852;28;19913;-79
2021/08/31 04:13:07;;;;;;;;;;;;;;;-142.75;100.00;77790.94;5032608;28;19913;-78
2021/08/31 04:15:33;;;;;;;;;;;;;;;-142.75;100.00;77787.00;5012589;28;19913;-78
2021/08/31 04:17:58;;;;;;;;;;;;;;;-142.75;100.00;77787.00;5016572;28;19914;-79
2021/08/31 04:20:24;;;;;;;;;;;;;;;-142.75;100.00;77788.97;5029591;28;20374;-78
2021/08/31 04:22:49;;;;;;;;;;;;;;;-142.75;100.00;77800.78;5012743;28;19914;-78
2021/08/31 04:25:14;;;;;;;;;;;;;;;-142.75;100.00;77798.81;5012510;28;19952;-78
2021/08/31 04:27:39;;;;;;;;;;;;;;;-142.75;100.00;77798.81;5013269;28;19921;-78
2021/08/31 04:30:05;;;;;;;;;;;;;;;-142.75;100.00;77802.75;5013734;28;19913;-79
2021/08/31 04:32:30;;;;;;;;;;;;;;;-142.75;100.00;77804.72;5021557;28;20302;-79
2021/08/31 04:34:58;;;;;;;;;;;;;;;-142.75;100.00;77800.78;5015878;28;19937;-78
2021/08/31 04:37:23;;;;;;;;;;;;;;;-142.75;100.00;77810.63;5048285;28;19913;-78
2021/08/31 04:39:48;;;;;;;;;;;;;;;-142.75;100.00;77808.66;5016317;28;19920;-79
2021/08/31 04:42:13;;;;;;;;;;;;;;;-142.75;100.00;77798.81;5024423;28;20011;-78
2021/08/31 04:44:38;;;;;;;;;;;;;;;-142.75;100.00;77798.81;5019064;28;19917;-78
2021/08/31 04:47:04;;;;;;;;;;;;;;;-142.75;100.00;77798.81;5041256;28;20009;-78
2021/08/31 04:49:29;;;;;;;;;;;;;;;-142.75;100.00;77796.84;5021527;28;19951;-79
2021/08/31 04:51:54;;;;;;;;;;;;;;;-142.75;100.00;77806.69;5015095;28;19913;-78
2021/08/31 04:54:19;;;;;;;;;;;;;;;-142.75;100.00;77796.84;5057970;23;19928;-78
2021/08/31 04:56:45;;;;;;;;;;;;;;;-142.75;100.00;77800.78;4982820;28;19922;-77
2021/08/31 04:59:10;;;;;;;;;;;;;;;-142.75;100.00;77804.72;4996587;28;19914;-77
2021/08/31 05:01:35;;;;;;;;;;;;;;;-142.75;100.00;77804.72;5062783;28;19960;-78
2021/08/31 05:04:00;;;;;;;;;;;;;;;-142.75;100.00;77802.75;4999424;28;20523;-77
2021/08/31 05:06:26;;;;;;;;;;;;;;;-142.75;100.00;77788.97;4990803;28;20008;-77
2021/08/31 05:08:51;;;;;;;;;;;;;;;-142.75;100.00;77785.03;4992778;28;19945;-77
2021/08/31 05:11:16;;;;;;;;;;;;;;;-142.75;100.00;77787.00;5001144;28;19913;-77
2021/08/31 05:13:41;;;;;;;;;;;;;;;-142.75;100.00;77779.13;4993635;28;19979;-77
2021/08/31 05:16:07;;;;;;;;;;;;;;;-142.75;100.00;77769.28;5073115;28;19973;-78
2021/08/31 05:18:35;;;;;;;;;;;;;;;-142.75;100.00;77773.22;4997346;28;19914;-77
2021/08/31 05:21:00;;;;;;;;;;;;;;;-142.75;100.00;77763.38;4997654;28;19978;-78
2021/08/31 05:23:25;;;;;;;;;;;;;;;-142.75;100.00;77763.38;4999001;28;19926;-76
2021/08/31 05:25:50;;;;;;;;;;;;;;;-142.75;100.00;77755.50;5001669;28;19921;-77
2021/08/31 05:28:16;;;;;;;;;;;;;;;-142.75;100.00;77763.38;5060145;28;19917;-77
2021/08/31 05:30:41;;;;;;;;;;;;;;;-142.75;100.00;77767.31;4998043;28;19929;-77
2021/08/31 05:33:06;;;;;;;;;;;;;;;-142.75;100.00;77763.38;5002083;28;19936;-77
2021/08/31 05:35:31;;;;;;;;;;;;;;;-142.75;100.00;77751.56;5000399;28;19913;-77
2021/08/31 05:37:56;;;;;;;;;;;;;;;-142.75;100.00;77747.63;5002070;28;20335;-77
2021/08/31 05:40:22;;;;;;;;;;;;;;;-142.75;100.00;77727.94;4999897;28;19913;-77
2021/08/31 05:42:47;;;;;;;;;;;;;;;-142.75;100.00;77700.34;4999549;28;20392;-77
2021/08/31 05:45:13;;;;;;;;;;;;;;;-142.75;100.00;77668.84;4990469;28;19934;-77
2021/08/31 05:47:38;;;;;;;;;;;;;;;-142.75;100.00;77633.41;5048776;28;19914;-77
2021/08/31 05:50:04;;;;;;;;;;;;;;;-142.75;100.00;77594.03;5047569;28;19918;-78
2021/08/31 05:52:29;;;;;;;;;;;;;;;-142.75;98.16;77548.75;4996146;28;19913;-77
2021/08/31 05:54:54;;;;;;;;;;;;;;;-142.75;95.75;77515.28;4996508;28;20355;-77
2021/08/31 05:57:19;;;;;;;;;;;;;;;-142.75;92.96;77466.03;5050008;28;20003;-77
2021/08/31 05:59:45;;;;;;;;;;;;;;;-142.75;90.35;77428.63;4976786;28;20345;-77
2021/08/31 06:02:10;;;;;;;;;;;;;;;-142.75;87.55;77381.38;4976065;28;19953;-77
2021/08/31 06:04:36;;;;;;;;;;;;;;;-142.75;84.14;77330.19;4975332;28;20371;-78
2021/08/31 06:07:03;;;;;;;;;;;;;;;-142.75;81.55;77294.75;4989024;28;19967;-77
2021/08/31 06:09:29;;;;;;;;;;;;;;;-142.75;79.47;77263.25;4995866;28;19936;-77
2021/08/31 06:11:55;;;;;;;;;;;;;;;-142.75;78.04;77223.88;5060062;28;20371;-77
2021/08/31 06:14:21;;;;;;;;;;;;;;;-142.75;76.12;77200.25;4985169;28;20387;-76
2021/08/31 06:16:46;;;;;;;;;;;;;;;-142.75;74.53;77162.84;5041239;28;19929;-76
2021/08/31 06:19:11;;;;;;;;;;;;;;;-142.75;72.93;77141.19;4972780;28;19914;-77
2021/08/31 06:21:36;;;;;;;;;;;;;;;-142.75;72.15;77099.84;4973033;28;19948;-76
2021/08/31 06:24:01;;;;;;;;;;;;;;;-142.75;70.81;77070.31;4972600;28;19979;-77
2021/08/31 06:26:27;;;;;;;;;;;;;;;-142.75;69.56;77030.94;5059676;28;19913;-76
2021/08/31 06:28:52;;;;;;;;;;;;;;;-142.75;68.33;76995.50;4990703;28;19918;-75
2021/08/31 06:31:17;;;;;;;;;;;;;;;-142.75;67.16;76948.25;4990322;28;19976;-76
2021/08/31 06:33:46;;;;;;;;;;;;;;;-142.75;66.54;76948.25;4991167;28;19913;-76
2021/08/31 06:36:12;;;;;;;;;;;;;;;-142.75;65.49;76922.66;5048766;28;19914;-76
2021/08/31 06:38:37;;;;;;;;;;;;;;;-142.75;65.37;76891.16;4972427;28;19997;-77
2021/08/31 06:41:02;;;;;;;;;;;;;;;-142.75;64.25;76861.63;4970982;28;19976;-75
2021/08/31 06:43:29;;;;;;;;;;;;;;;-142.75;62.92;76826.19;4971419;28;19918;-76
2021/08/31 06:45:54;;;;;;;;;;;;;;;-142.75;61.38;76798.66;4971930;28;20315;-77
2021/08/31 06:48:20;;;;;;;;;;;;;;;-142.75;61.34;76796.69;4972838;28;19922;-76
2021/08/31 06:50:45;;;;;;;;;;;;;;;-142.75;60.48;76780.94;5036851;28;20013;-75
2021/08/31 06:53:10;;;;;;;;;;;;;;;-142.75;60.24;76782.91;5036895;28;20494;-75
2021/08/31 06:55:36;;;;;;;;;;;;;;;-142.75;60.73;76749.44;4970800;28;19918;-76
2021/08/31 06:58:02;;;;;;;;;;;;;;;-142.75;58.94;76706.13;4970965;28;19918;-76
2021/08/31 07:00:27;;;;;;;;;;;;;;;-142.75;57.01;76649.03;5038196;28;19914;-75
2021/08/31 07:02:52;;;;;;;;;;;;;;;-142.75;56.41;76605.72;5037374;28;20383;-75
2021/08/31 07:05:17;;;;;;;;;;;;;;;-142.75;54.58;76572.25;4969419;28;19918;-75
2021/08/31 07:07:42;;;;;;;;;;;;;;;-142.75;53.57;76534.84;5036892;28;19940;-76
2021/08/31 07:10:08;;;;;;;;;;;;;;;-142.75;53.58;76509.28;4970325;28;19922;-76
2021/08/31 07:12:33;;;;;;;;;;;;;;;-142.75;52.91;76456.13;5035109;28;19918;-75
2021/08/31 07:14:59;;;;;;;;;;;;;;;-142.75;51.91;76428.56;4968653;28;19921;-75
2021/08/31 07:17:24;;;;;;;;;;;;;;;-142.75;50.46;76369.50;4968859;28;19928;-75
2021/08/31 07:19:49;;;;;;;;;;;;;;;-142.75;50.59;76322.28;5035089;28;20648;-75
2021/08/31 07:22:17;;;;;;;;;;;;;;;-142.75;49.80;76278.97;5035833;28;19936;-75
2021/08/31 07:24:42;;;;;;;;;;;;;;;-142.75;48.77;76210.06;4969191;28;19918;-76
2021/08/31 07:27:07;;;;;;;;;;;;;;;-142.75;46.94;76178.59;4969219;28;20500;-75
2021/08/31 07:29:32;;;;;;;;;;;;;;;-142.75;47.26;76186.47;5035737;28;20422;-76
2021/08/31 07:31:58;;;;;;;;;;;;;;;-142.75;47.21;76164.81;4969084;28;19914;-75
2021/08/31 07:34:23;;;;;;;;;;;;;;;-142.75;46.07;76097.88;5035016;28;19937;-75
2021/08/31 07:36:48;;;;;;;;;;;;;;;-142.75;45.36;76062.47;5035898;28;19914;-77
2021/08/31 07:39:13;;;;;;;;;;;;;;;-142.75;43.62;76023.09;4969531;28;20022;-75
2021/08/31 07:41:39;;;;;;;;;;;;;;;-142.75;43.57;75999.47;4969289;28;20486;-76
2021/08/31 07:44:04;;;;;;;;;;;;;;;-142.75;43.70;75979.78;5035709;28;19922;-73
2021/08/31 07:46:29;;;;;;;;;;;;;;;-142.75;42.57;75922.72;5035626;28;20004;-73
2021/08/31 07:48:54;;;;;;;;;;;;;;;-142.75;42.19;75924.69;4968828;28;20363;-72
2021/08/31 07:51:19;;;;;;;;;;;;;;;-142.75;41.43;75924.69;4968591;28;19945;-73
2021/08/31 07:53:45;;;;;;;;;;;;;;;-142.75;41.38;75895.16;4967283;28;19929;-73
2021/08/31 07:56:10;;;;;;;;;;;;;;;-142.75;40.77;75960.13;5035254;28;20592;-72
2021/08/31 07:58:36;;;;;;;;;;;;;;;-142.75;42.38;75975.84;4968644;28;19914;-72
2021/08/31 08:01:01;;;;;;;;;;;;;;;-142.75;41.65;75932.56;4968524;28;19918;-73
2021/08/31 08:03:27;;;;;;;;;;;;;;;-142.75;40.68;75897.13;5035060;28;19914;-73
2021/08/31 08:05:52;;;;;;;;;;;;;;;-142.75;40.73;75905.00;5036091;28;19914;-73
2021/08/31 08:08:17;;;;;;;;;;;;;;;-142.75;39.58;75912.88;4968880;28;19984;-73
2021/08/31 08:10:42;;;;;;;;;;;;;;;-142.75;41.91;76023.09;4968743;28;20008;-73
2021/08/31 08:13:07;;;;;;;;;;;;;;;-142.75;42.33;75969.94;4968589;28;19922;-72
2021/08/31 08:15:33;;;;;;;;;;;;;;;-142.75;40.61;75954.22;4969234;28;20273;-73
2021/08/31 08:17:59;;;;;;;;;;;;;;;-142.75;41.16;75969.94;4969152;28;19914;-73
2021/08/31 08:20:24;;;;;;;;;;;;;;;-142.75;39.93;76030.97;4969681;28;20368;-73
2021/08/31 08:22:49;;;;;;;;;;;;;;;-142.75;40.79;76005.38;5036272;28;20051;-72
2021/08/31 08:25:15;;;;;;;;;;;;;;;-142.75;41.34;75924.69;5035759;28;19925;-73
2021/08/31 08:27:40;;;;;;;;;;;;;;;-142.75;38.71;75857.78;4969547;28;19941;-74
2021/08/31 08:30:06;;;;;;;;;;;;;;;-142.75;40.73;75920.75;5035702;28;20023;-73
2021/08/31 08:32:31;;;;;;;;;;;;;;;-142.75;40.12;75790.84;5036220;28;19914;-72
2021/08/31 08:34:56;;;;;;;;;;;;;;;-142.75;38.24;75731.81;5036501;28;19972;-73
2021/08/31 08:37:22;;;;;;;;;;;;;;;-142.75;38.43;75684.56;5035951;28;19914;-74
2021/08/31 08:39:47;;;;;;;;;;;;;;;-142.75;36.61;75639.31;4984477;28;19913;-74
2021/08/31 08:42:13;;;;;;;;;;;;;;;-142.75;36.88;75664.91;4987464;28;19953;-74
2021/08/31 08:44:38;;;;;;;;;;;;;;;-142.75;37.74;75668.84;5055092;28;20023;-74
2021/08/31 08:47:03;;;;;;;;;;;;;;;-142.75;38.02;75790.84;4987844;28;19917;-74
2021/08/31 08:49:29;;;;;;;;;;;;;;;-142.75;37.00;75761.34;4987697;28;19917;-74
2021/08/31 08:51:56;;;;;;;;;;;;;;;-142.75;37.97;75822.34;4987620;28;20358;-74
2021/08/31 08:54:21;;;;;;;;;;;;;;;-142.75;38.89;75895.16;4987703;28;19932;-74
2021/08/31 08:56:46;;;;;;;;;;;;;;;-142.75;38.49;75948.31;4987778;28;19937;-74
2021/08/31 08:59:13;;;;;;;;;;;;;;;-142.75;39.15;76099.84;5056121;28;19913;-73
2021/08/31 09:01:42;;;;;;;;;;;;;;;-142.75;41.97;76265.19;4987250;28;19914;-74
2021/08/31 09:04:08;;;;;;;;;;;;;;;-142.75;44.18;76375.41;5037032;28;20362;-74
2021/08/31 09:06:33;;;;;;;;;;;;;;;-142.75;45.32;76452.19;4968262;28;19961;-73
2021/08/31 09:08:59;;;;;;;;;;;;;;;-142.75;46.98;76361.63;4968063;28;20396;-74
2021/08/31 09:11:25;;;;;;;;;;;;;;;-142.75;44.56;76131.34;4967525;28;19914;-74
2021/08/31 09:13:51;;;;;;;;;;;;;;;-142.75;42.13;76113.63;4968686;28;19925;-73
2021/08/31 09:16:20;;;;;;;;;;;;;;;-142.75;42.41;76153.00;5038894;28;19951;-75
2021/08/31 09:18:50;;;;;;;;;;;;;;;-142.75;42.81;76257.31;4972245;28;19918;-73
2021/08/31 09:21:19;;;;;;;;;;;;;;;-142.75;44.39;76334.09;5038766;28;19960;-74
2021/08/31 09:23:48;;;;;;;;;;;;;;;-142.75;44.51;76375.41;4970845;28;20395;-74
2021/08/31 09:26:18;;;;;;;;;;;;;;;-142.75;46.08;76448.25;4971832;28;19920;-73
2021/08/31 09:28:43;;;;;;;;;;;;;;;-142.75;46.98;76483.69;4971932;28;19914;-74
2021/08/31 09:31:10;;;;;;;;;;;;;;;-142.75;47.81;76418.72;4971852;28;19921;-74
2021/08/31 09:33:37;;;;;;;;;;;;;;;-142.75;46.10;76389.19;4971769;28;19972;-75
2021/08/31 09:36:04;;;;;;;;;;;;;;;-142.75;45.50;76432.50;5039418;28;19968;-74
2021/08/31 09:38:40;;;;;;;;;;;;;;;-142.75;47.20;76460.06;4970594;28;20004;-76
2021/08/31 09:41:05;;;;;;;;;;;;;;;-142.75;48.00;76509.28;4971311;28;20006;-75
2021/08/31 09:43:31;;;;;;;;;;;;;;;-142.75;49.13;76523.06;4971755;28;20354;-76
2021/08/31 09:45:56;;;;;;;;;;;;;;;-142.75;49.63;76467.94;4971823;28;20542;-75
2021/08/31 09:48:22;;;;;;;;;;;;;;;-142.75;47.64;76454.16;4971547;28;20020;-75
2021/08/31 09:50:55;;;;;;;;;;;;;;;-142.75;47.32;76414.78;4971282;28;20465;-75
2021/08/31 09:53:30;;;;;;;;;;;;;;;-142.75;46.57;76424.63;5038086;28;19979;-75
2021/08/31 09:56:01;;;;;;;;;;;;;;;-142.75;47.41;76436.44;4971358;28;19953;-75
2021/08/31 09:58:26;;;;;;;;;;;;;;;-142.75;46.86;76395.09;4971411;28;19914;-75
2021/08/31 10:00:53;;;;;;;;;;;;;;;-142.75;47.36;76290.78;4971099;28;19918;-75
2021/08/31 10:03:18;;;;;;;;;;;;;;;-142.75;45.15;76208.09;5038074;28;20360;-76
2021/08/31 10:05:44;;;;;;;;;;;;;;;-142.75;45.01;76253.38;4971341;28;19975;-75
2021/08/31 10:08:10;;;;;;;;;;;;;;;-142.75;43.79;76302.59;4971596;28;19914;-75
2021/08/31 10:10:36;;;;;;;;;;;;;;;-142.75;45.12;76355.72;4971219;28;19914;-75
2021/08/31 10:13:03;;;;;;;;;;;;;;;-142.75;45.40;76363.59;4971103;28;19956;-76
2021/08/31 10:15:29;;;;;;;;;;;;;;;-142.75;45.19;76336.06;4971187;28;19918;-75
2021/08/31 10:17:54;;;;;;;;;;;;;;;-142.75;45.85;76369.50;4971068;28;20004;-76
2021/08/31 10:20:22;;;;;;;;;;;;;;;-142.75;45.16;76383.28;4977300;28;19918;-75
2021/08/31 10:22:47;;;;;;;;;;;;;;;-142.75;45.04;76467.94;4990748;28;19914;-74
2021/08/31 10:25:13;;;;;;;;;;;;;;;-142.75;46.38;76489.59;4989492;28;19914;-75
2021/08/31 10:27:38;;;;;;;;;;;;;;;-142.75;46.56;76497.47;4989997;28;19921;-76
2021/08/31 10:30:23;;;;;;;;;;;;;;;-142.75;47.47;76369.50;5057305;28;20326;-76
2021/08/31 10:32:50;;;;;;;;;;;;;;;-142.75;44.63;76172.69;4996907;28;19929;-75
2021/08/31 10:35:31;;;;;;;;;;;;;;;-142.75;43.19;76149.06;4990212;28;19987;-75
2021/08/31 10:37:57;;;;;;;;;;;;;;;-142.75;42.77;76174.66;4990148;28;19939;-75
2021/08/31 10:40:35;;;;;;;;;;;;;;;-142.75;43.26;76231.72;4989770;28;19914;-76
2021/08/31 10:43:01;;;;;;;;;;;;;;;-142.75;44.41;76188.44;5057359;28;19914;-75
2021/08/31 10:45:26;;;;;;;;;;;;;;;-142.75;42.96;76149.06;4990004;28;19928;-76
2021/08/31 10:47:52;;;;;;;;;;;;;;;-142.75;43.10;76196.31;4990086;28;19913;-75
2021/08/31 10:50:21;;;;;;;;;;;;;;;-142.75;43.35;76247.47;4989714;28;20000;-75
2021/08/31 10:52:51;;;;;;;;;;;;;;;-142.75;44.10;76300.63;4973727;28;19914;-75
2021/08/31 10:55:23;;;;;;;;;;;;;;;-142.75;45.57;76357.69;5011628;22;20311;-79
2021/08/31 10:57:48;;;;;;;;;;;;;;;-142.75;45.81;76381.31;5057727;28;19989;-80
2021/08/31 11:00:16;;;;;;;;;;;;;;;-142.75;46.63;76406.91;5060220;28;19957;-81
2021/08/31 11:02:47;;;;;;;;;;;;;;;-142.75;47.26;76430.53;5059451;28;19921;-79
2021/08/31 11:05:22;;;;;;;;;;;;;;;-142.75;47.79;76428.56;4996974;28;20026;-79
2021/08/31 11:08:10;;;;;;;;;;;;;;;-142.75;48.30;76440.38;4999844;28;20390;-78
2021/08/31 11:10:37;;;;;;;;;;;;;;;-142.75;48.46;76450.22;5018637;28;20298;-79
2021/08/31 11:13:18;;;;;;;;;;;;;;;-142.75;49.00;76452.19;5012818;28;20047;-79
2021/08/31 11:15:44;;;;;;;;;;;;;;;-142.75;48.68;76442.34;5011949;28;19944;-79
2021/08/31 11:18:11;;;;;;;;;;;;;;;-142.75;47.40;76267.16;5012310;28;19921;-82
2021/08/31 11:20:38;;;;;;;;;;;;;;;-142.75;44.59;76101.81;5080981;28;20295;-79
2021/08/31 11:23:03;;;;;;;;;;;;;;;-142.75;42.42;75993.56;5005936;28;19917;-79
2021/08/31 11:25:29;;;;;;;;;;;;;;;-142.75;40.51;75910.91;4998459;28;19914;-79
2021/08/31 11:27:56;;;;;;;;;;;;;;;-142.75;39.61;75855.81;5071785;28;19914;-80
2021/08/31 11:30:22;;;;;;;;;;;;;;;-142.75;37.85;75806.59;5003027;28;19924;-81
2021/08/31 11:32:47;;;;;;;;;;;;;;;-142.75;37.87;75806.59;5076919;28;19914;-79
2021/08/31 11:35:12;;;;;;;;;;;;;;;-142.75;37.36;75771.16;5002471;28;19917;-81
2021/08/31 11:37:51;;;;;;;;;;;;;;;-142.75;37.44;75773.13;5076702;28;19921;-80
2021/08/31 11:40:24;;;;;;;;;;;;;;;-142.75;38.26;75842.03;4997188;28;19913;-79
2021/08/31 11:42:50;;;;;;;;;;;;;;;-142.75;39.00;75973.88;5061627;28;20029;-80
2021/08/31 11:45:16;;;;;;;;;;;;;;;-142.75;39.70;76082.13;5000122;28;20000;-80
2021/08/31 11:47:42;;;;;;;;;;;;;;;-142.75;40.45;76074.25;4994734;28;19956;-79
2021/08/31 11:50:07;;;;;;;;;;;;;;;-142.75;40.48;76093.94;5069503;28;19912;-78
2021/08/31 11:52:32;;;;;;;;;;;;;;;-142.75;41.97;76221.88;5004069;28;19918;-79
2021/08/31 11:54:58;;;;;;;;;;;;;;;-142.75;42.81;76298.66;5009135;28;19924;-79
2021/08/31 11:57:33;;;;;;;;;;;;;;;-142.75;43.36;76308.50;5067997;28;19917;-79
2021/08/31 11:59:58;;;;;;;;;;;;;;;-142.75;44.30;76298.66;4991781;28;19913;-80
2021/08/31 12:02:25;;;;;;;;;;;;;;;-142.75;43.92;76357.69;5003465;28;19956;-78
2021/08/31 12:04:53;;;;;;;;;;;;;;;-142.75;44.95;76420.69;5008650;28;19917;-78
2021/08/31 12:07:18;;;;;;;;;;;;;;;-142.75;45.53;76462.03;5065317;28;19912;-79
2021/08/31 12:09:45;;;;;;;;;;;;;;;-142.75;46.63;76440.38;5003962;28;19920;-80
2021/08/31 12:12:11;;;;;;;;;;;;;;;-142.75;47.41;76460.06;5059569;28;19949;-79
2021/08/31 12:14:37;;;;;;;;;;;;;;;-142.75;47.30;76440.38;5004301;28;20363;-79
2021/08/31 12:17:02;;;;;;;;;;;;;;;-142.75;46.46;76410.84;5070693;28;19956;-80